Decoded Metar for CYAM (SAULT SAINTE MARIE in ON, CANADA) (IATA:YAM) | Meteo·Mobile Aviation Weather
aviador You're here:

CYAM Decoded Metar

SAULT SAINTE MARIE in ON, CANADA
Report Time2018-11-19 03:00:00
UTC Time2018-11-19 03:53:14
Flight Rules vfr VFR
Wind250° at 11 Gusting to 17 kt
W.Decomp.*RWY 22: 8.8 kt HW 6.6 kt RCW
RWY 30: 8.0 kt HW 7.5 kt LCW
W.Rank250° ranks 17
Current wind is above 250° avg. (8.0)
Visibility9999 m
Phenomena:N/A
Clouds:Scattered 030 Hf
Broken 038 Hf
Broken 052 Hf
Expected CloudBase > 2,000 ft AGL from Temp-Dew spread
Ceiling3,800 ft
Temp-4°C (ISA -18)
Dew Point-9°C (69% RH)
AAT-10.9°C
QNH1018 hPa
Density Alt-1,680 ft
Elevation630 ft
Report Wrong Elevation
Raw Report
CYAM 190300Z 25011G17KT 25SM SCT030 BKN038 BKN052 M04/M09 A3005
RMK SC4SC2SC1 SLP189=

Extra information for CYAM:More info

Metar Taf Metar & Taf Last 4 Metars F.Rules Stats Wind Profile Meteogram Temp Stats Airport Information Weather charts Add Link Nearby VenuesMetar ALERT Operation Metar Decoded Social comments